MIA weather

Miami International Airport
Miami, Florida, United States

Public forecast

Using degrees Fahrenheit for public forecast. Weather courtesy of forecast.io.

Current aviation weather report (METAR) for Miami International Airport

Retrieved 2019/10/13 19:53 UTC (20 minutes ago):

KMIA 131953Z 10010KT 10SM SCT036 SCT080 SCT250 30/21 A2998 RMK AO2 SLP151 T03000206

Aviation forecast (TAF) for Miami International Airport

Retrieved 2019/10/13 18:33 UTC (2 hours ago):

TAF KMIA 131730Z 1318/1424 10011KT P6SM VCSH SCT030 BKN080 FM140300 09009KT P6SM FEW025 SCT070